createdAt,value
2019-03-28T00:01:25.665Z,67.77
2019-03-28T00:03:54.104Z,67.84
2019-03-28T00:06:23.124Z,67.24
2019-03-28T00:08:51.643Z,68.86
2019-03-28T00:11:20.078Z,69.46
2019-03-28T00:13:48.503Z,70.06
2019-03-28T00:16:16.971Z,70.04
2019-03-28T00:18:45.399Z,70.28
2019-03-28T00:21:13.900Z,70.02
2019-03-28T00:24:02.141Z,70.42
2019-03-28T00:26:31.385Z,70.42
2019-03-28T00:29:00.363Z,70.26
2019-03-28T00:31:29.060Z,70.50
2019-03-28T00:33:57.677Z,70.38
2019-03-28T00:36:26.110Z,70.50
2019-03-28T00:38:54.569Z,70.70
2019-03-28T00:41:22.998Z,71.00
2019-03-28T00:43:51.429Z,70.65
2019-03-28T00:46:19.886Z,70.71
2019-03-28T00:48:48.311Z,70.96
2019-03-28T00:51:16.738Z,71.82
2019-03-28T00:53:45.216Z,72.49
2019-03-28T00:56:13.644Z,71.89
2019-03-28T00:58:42.074Z,70.84
2019-03-28T01:01:10.595Z,70.30
2019-03-28T01:03:39.028Z,70.44
2019-03-28T01:06:07.509Z,71.05
2019-03-28T01:08:35.905Z,70.59
2019-03-28T01:11:04.330Z,69.60
2019-03-28T01:13:32.787Z,70.24
2019-03-28T01:16:01.221Z,71.74
2019-03-28T01:18:29.653Z,72.12
2019-03-28T01:20:58.104Z,72.44
2019-03-28T01:23:26.564Z,72.52
2019-03-28T01:25:55.023Z,72.80
2019-03-28T01:28:23.456Z,72.29
2019-03-28T01:30:51.876Z,72.34
2019-03-28T01:33:20.339Z,72.68
2019-03-28T01:35:48.767Z,72.05
2019-03-28T01:38:17.198Z,71.63
2019-03-28T01:40:45.815Z,71.80
2019-03-28T01:43:14.244Z,73.87
2019-03-28T01:45:42.844Z,73.16
2019-03-28T01:48:11.298Z,72.84
2019-03-28T01:50:40.018Z,71.94
2019-03-28T01:53:08.439Z,71.23
2019-03-28T01:55:36.907Z,71.30
2019-03-28T01:58:05.446Z,71.02
2019-03-28T02:00:33.833Z,71.37
2019-03-28T02:03:02.283Z,71.52
2019-03-28T02:05:30.705Z,71.49
2019-03-28T02:07:59.144Z,71.80
2019-03-28T02:10:27.883Z,71.43
2019-03-28T02:12:56.508Z,71.17
2019-03-28T02:15:24.930Z,72.08
2019-03-28T02:17:53.371Z,71.90
2019-03-28T02:20:21.803Z,73.23
2019-03-28T02:22:50.246Z,74.26
2019-03-28T02:25:18.671Z,74.42
2019-03-28T02:27:47.117Z,73.99
2019-03-28T02:30:17.237Z,73.42
2019-03-28T02:32:45.659Z,72.98
2019-03-28T02:35:14.106Z,73.35
2019-03-28T02:37:42.535Z,74.11
2019-03-28T02:40:11.196Z,74.07
2019-03-28T02:42:39.635Z,74.43
2019-03-28T02:45:08.433Z,74.49
2019-03-28T02:47:36.873Z,74.41
2019-03-28T02:50:08.223Z,74.09
2019-03-28T02:52:36.663Z,73.46
2019-03-28T02:55:06.732Z,72.64
2019-03-28T02:57:41.628Z,72.86
2019-03-28T03:00:09.272Z,73.77
2019-03-28T03:02:37.701Z,74.40
2019-03-28T03:05:08.237Z,74.37
2019-03-28T03:07:36.743Z,74.48
2019-03-28T03:10:07.272Z,74.65
2019-03-28T03:12:35.694Z,74.63
2019-03-28T03:15:06.429Z,76.36
2019-03-28T03:17:35.169Z,76.00
2019-03-28T03:20:04.956Z,75.33
2019-03-28T03:22:33.387Z,74.37
2019-03-28T03:25:01.842Z,74.30
2019-03-28T03:27:30.266Z,74.94
2019-03-28T03:29:58.715Z,74.86
2019-03-28T03:32:27.151Z,74.55
2019-03-28T03:34:55.585Z,74.12
2019-03-28T03:37:24.024Z,73.60
2019-03-28T03:39:52.481Z,74.11
2019-03-28T03:42:21.082Z,74.40
2019-03-28T03:44:49.531Z,74.49
2019-03-28T03:47:19.486Z,74.93
2019-03-28T03:49:48.484Z,75.19
2019-03-28T03:52:16.919Z,74.39
2019-03-28T03:54:45.448Z,74.64
2019-03-28T03:57:13.866Z,74.11
2019-03-28T03:59:42.299Z,74.69
2019-03-28T04:02:11.041Z,74.83
2019-03-28T04:04:39.652Z,76.85
2019-03-28T04:07:08.103Z,76.05
2019-03-28T04:09:36.534Z,75.86
2019-03-28T04:12:05.046Z,75.26
2019-03-28T04:14:33.490Z,74.97
2019-03-28T04:17:01.915Z,75.57
2019-03-28T04:19:31.165Z,75.80
2019-03-28T04:22:00.264Z,75.99
2019-03-28T04:24:28.783Z,75.65
2019-03-28T04:26:57.337Z,75.21
2019-03-28T04:29:25.810Z,74.76
2019-03-28T04:31:54.249Z,75.62
2019-03-28T04:34:22.679Z,75.51
2019-03-28T04:36:51.109Z,75.95
2019-03-28T04:39:19.565Z,75.88
2019-03-28T04:41:48.006Z,76.32
2019-03-28T04:44:16.431Z,77.26
2019-03-28T04:46:45.366Z,78.05
2019-03-28T04:49:15.736Z,77.92
2019-03-28T04:51:44.318Z,76.50
2019-03-28T04:54:12.758Z,76.37
2019-03-28T04:56:41.194Z,75.59
2019-03-28T04:59:09.625Z,75.09
2019-03-28T05:01:38.068Z,75.04
2019-03-28T05:04:06.495Z,75.38
2019-03-28T05:06:37.823Z,74.95
2019-03-28T05:09:06.535Z,74.58
2019-03-28T05:11:34.980Z,74.52
2019-03-28T05:14:03.422Z,74.38
2019-03-28T05:16:31.864Z,75.11
2019-03-28T05:19:00.644Z,75.29
2019-03-28T05:21:29.073Z,74.31
2019-03-28T05:23:57.522Z,73.99
2019-03-28T05:26:25.954Z,74.08
2019-03-28T05:28:57.811Z,73.93
2019-03-28T05:31:24.564Z,73.83
2019-03-28T05:33:53.006Z,73.68
2019-03-28T05:36:21.439Z,73.77
2019-03-28T05:38:49.880Z,74.14
2019-03-28T05:41:18.313Z,75.17
2019-03-28T05:43:46.768Z,74.27
2019-03-28T05:46:15.195Z,74.09
2019-03-28T05:48:43.639Z,73.67
2019-03-28T05:51:12.069Z,73.70
2019-03-28T05:53:40.519Z,73.57
2019-03-28T05:56:08.936Z,73.57
2019-03-28T05:58:37.374Z,73.35
2019-03-28T06:01:06.363Z,73.48
2019-03-28T06:03:35.259Z,74.03
2019-03-28T06:06:03.693Z,74.34
2019-03-28T06:08:32.124Z,73.92
2019-03-28T06:11:01.209Z,74.22
2019-03-28T06:13:29.780Z,74.11
2019-03-28T06:15:58.814Z,73.88
2019-03-28T06:18:27.336Z,73.79
2019-03-28T06:20:55.765Z,73.67
2019-03-28T06:23:24.218Z,73.38
2019-03-28T06:25:53.019Z,73.26
2019-03-28T06:28:21.786Z,72.88
2019-03-28T06:30:50.686Z,73.54
2019-03-28T06:33:23.974Z,72.71
2019-03-28T06:35:52.396Z,72.66
2019-03-28T06:38:20.858Z,71.23
2019-03-28T06:40:49.314Z,71.59
2019-03-28T06:43:18.345Z,70.24
2019-03-28T06:45:46.794Z,69.74
2019-03-28T06:48:15.324Z,66.73
2019-03-28T06:50:44.857Z,65.43
2019-03-28T06:53:13.573Z,64.67
2019-03-28T06:55:42.192Z,65.63
2019-03-28T06:58:10.620Z,65.85
2019-03-28T07:00:39.235Z,64.35
2019-03-28T07:03:07.705Z,63.44
2019-03-28T07:05:36.137Z,64.20
2019-03-28T07:08:04.565Z,63.06
2019-03-28T07:10:33.099Z,62.89
2019-03-28T07:13:01.532Z,62.71
2019-03-28T07:15:29.960Z,60.25
2019-03-28T07:17:58.773Z,58.78
2019-03-28T07:20:27.193Z,58.40
2019-03-28T07:22:55.958Z,57.75
2019-03-28T07:25:25.669Z,57.64
2019-03-28T07:27:54.321Z,56.28
2019-03-28T07:30:22.997Z,54.74
2019-03-28T07:32:51.450Z,53.44
2019-03-28T07:35:19.886Z,51.90
2019-03-28T07:37:48.314Z,52.50
2019-03-28T07:40:17.109Z,49.97
2019-03-28T07:42:45.551Z,48.53
2019-03-28T07:45:14.427Z,47.91
2019-03-28T07:47:42.881Z,48.27
2019-03-28T07:50:12.209Z,48.65
2019-03-28T07:52:40.668Z,47.66
2019-03-28T07:55:09.750Z,47.19
2019-03-28T07:57:38.184Z,46.59
2019-03-28T08:00:09.414Z,46.00
2019-03-28T08:04:48.533Z,45.97
2019-03-28T08:07:16.966Z,43.57
2019-03-28T08:09:45.400Z,43.33
2019-03-28T08:12:22.579Z,44.47
2019-03-28T08:14:44.011Z,43.46
2019-03-28T08:17:12.466Z,42.43
2019-03-28T08:19:41.684Z,42.87
2019-03-28T08:22:10.226Z,43.15
2019-03-28T08:24:38.673Z,42.44
2019-03-28T08:27:07.121Z,42.58
2019-03-28T08:29:35.563Z,43.91
2019-03-28T08:32:05.641Z,43.27
2019-03-28T08:34:34.403Z,42.67
2019-03-28T08:37:03.410Z,43.87
2019-03-28T08:39:32.113Z,44.58
2019-03-28T08:42:00.574Z,47.80
2019-03-28T08:44:29.009Z,46.60
2019-03-28T08:46:57.446Z,47.07
2019-03-28T08:49:25.907Z,48.35
2019-03-28T08:51:54.332Z,49.92
2019-03-28T08:54:22.771Z,49.52
2019-03-28T08:56:51.226Z,49.85
2019-03-28T08:59:19.663Z,50.54
2019-03-28T09:01:48.107Z,49.99
2019-03-28T09:04:16.560Z,51.23
2019-03-28T09:06:45.276Z,51.64
2019-03-28T09:09:13.727Z,51.64
2019-03-28T09:11:42.179Z,52.34
2019-03-28T09:14:10.618Z,54.03
2019-03-28T09:16:39.051Z,51.67
2019-03-28T09:19:07.511Z,50.78
2019-03-28T09:21:35.960Z,50.75
2019-03-28T09:24:04.413Z,50.46
2019-03-28T09:26:32.877Z,52.06
2019-03-28T09:29:01.270Z,49.02
2019-03-28T09:31:29.799Z,52.96
2019-03-28T09:33:58.252Z,49.48
2019-03-28T09:36:26.667Z,50.17
2019-03-28T09:38:55.228Z,49.98
2019-03-28T09:41:23.661Z,49.00
2019-03-28T09:43:55.791Z,49.13
2019-03-28T09:46:22.271Z,47.93
2019-03-28T09:48:50.698Z,47.40
2019-03-28T09:51:19.130Z,47.82
2019-03-28T09:53:47.579Z,49.35
2019-03-28T09:56:16.021Z,48.97
2019-03-28T09:58:44.450Z,49.27
2019-03-28T10:01:12.907Z,49.62
2019-03-28T10:03:41.342Z,49.43
2019-03-28T10:06:09.776Z,49.79
2019-03-28T10:08:38.237Z,49.17
2019-03-28T10:11:06.670Z,48.16
2019-03-28T10:13:35.095Z,46.03
2019-03-28T10:16:03.556Z,50.40
2019-03-28T10:18:31.978Z,49.52
2019-03-28T10:21:00.411Z,48.34
2019-03-28T10:23:28.867Z,47.55
2019-03-28T10:25:57.306Z,48.75
2019-03-28T10:28:25.741Z,47.82
2019-03-28T10:30:54.195Z,47.30
2019-03-28T10:33:22.627Z,46.66
2019-03-28T10:35:51.067Z,47.21
2019-03-28T10:38:19.534Z,45.68
2019-03-28T10:40:47.971Z,44.15
2019-03-28T10:43:16.400Z,45.89
2019-03-28T10:45:44.860Z,43.43
2019-03-28T10:48:13.298Z,41.58
2019-03-28T10:50:45.587Z,43.13
2019-03-28T10:53:11.978Z,43.27
2019-03-28T10:55:40.522Z,43.75
2019-03-28T10:58:18.394Z,44.42
2019-03-28T11:00:39.142Z,43.27
2019-03-28T11:03:07.606Z,42.17
2019-03-28T11:05:36.010Z,41.96
2019-03-28T11:08:04.459Z,43.70
2019-03-28T11:10:32.897Z,44.04
2019-03-28T11:13:01.332Z,42.78
2019-03-28T11:15:29.870Z,45.30
2019-03-28T11:17:58.308Z,42.34
2019-03-28T11:20:27.098Z,43.72
2019-03-28T11:22:55.551Z,42.97
2019-03-28T11:25:23.987Z,46.76
2019-03-28T11:27:52.428Z,47.09
2019-03-28T11:30:21.026Z,46.86
2019-03-28T11:32:49.487Z,46.65
2019-03-28T11:35:17.954Z,47.59
2019-03-28T11:37:46.394Z,46.52
2019-03-28T11:40:15.000Z,45.26
2019-03-28T11:42:43.457Z,43.02
2019-03-28T11:45:12.629Z,45.29
2019-03-28T11:47:41.091Z,44.50
2019-03-28T11:50:10.776Z,44.43
2019-03-28T11:52:42.443Z,46.91
2019-03-28T11:55:11.281Z,43.86
2019-03-28T11:57:40.035Z,43.86
2019-03-28T12:00:11.478Z,42.33
2019-03-28T12:02:39.911Z,42.89
2019-03-28T12:05:08.555Z,42.66
2019-03-28T12:07:36.979Z,42.20
2019-03-28T12:10:08.484Z,43.44
2019-03-28T12:12:36.922Z,42.25
2019-03-28T12:15:08.235Z,42.11
2019-03-28T12:17:36.693Z,43.29
2019-03-28T12:20:08.330Z,41.09
2019-03-28T12:22:36.763Z,41.88
2019-03-28T12:25:06.967Z,43.48
2019-03-28T12:27:35.409Z,45.29
2019-03-28T12:30:05.722Z,43.56
2019-03-28T12:32:34.178Z,43.60
2019-03-28T12:35:02.622Z,43.11
2019-03-28T12:37:31.389Z,42.67
2019-03-28T12:40:00.195Z,43.54
2019-03-28T12:42:28.757Z,41.24
2019-03-28T12:44:58.415Z,44.85
2019-03-28T12:47:41.318Z,42.62
2019-03-28T12:49:57.577Z,41.93
2019-03-28T12:52:29.614Z,40.53
2019-03-28T12:54:56.579Z,42.31
2019-03-28T12:57:25.014Z,40.36
2019-03-28T12:59:53.895Z,42.37
2019-03-28T13:02:31.511Z,42.53
2019-03-28T13:04:52.558Z,43.78
2019-03-28T13:07:21.014Z,41.93
2019-03-28T13:09:49.768Z,43.13
2019-03-28T13:12:18.203Z,41.66
2019-03-28T13:14:47.729Z,42.84
2019-03-28T13:17:16.276Z,41.73
2019-03-28T13:19:44.718Z,41.94
2019-03-28T13:22:13.149Z,42.87
2019-03-28T13:24:41.591Z,42.65
2019-03-28T13:27:10.021Z,42.13
2019-03-28T13:29:38.484Z,45.77
2019-03-28T13:32:06.917Z,43.75
2019-03-28T13:34:35.323Z,43.93
2019-03-28T13:37:03.735Z,43.24
2019-03-28T13:39:32.157Z,44.58
2019-03-28T13:42:00.564Z,41.81
2019-03-28T13:44:30.323Z,43.23
2019-03-28T13:46:58.878Z,42.71
2019-03-28T13:49:27.288Z,41.96
2019-03-28T13:51:55.863Z,41.73
2019-03-28T13:54:24.196Z,42.45
2019-03-28T13:56:52.596Z,42.33
2019-03-28T13:59:21.025Z,41.88
2019-03-28T14:01:49.431Z,43.24
2019-03-28T14:04:17.827Z,41.59
2019-03-28T14:06:46.263Z,43.49
2019-03-28T14:09:14.657Z,41.65
2019-03-28T14:11:43.064Z,43.29
2019-03-28T14:14:11.659Z,42.75
2019-03-28T14:16:40.058Z,42.38
2019-03-28T14:19:08.473Z,42.91
2019-03-28T14:21:36.908Z,44.22
2019-03-28T14:24:05.465Z,43.24
2019-03-28T14:26:37.415Z,44.32
2019-03-28T14:29:06.888Z,45.95
2019-03-28T14:31:34.411Z,43.38
2019-03-28T14:34:02.884Z,42.86
2019-03-28T14:36:31.385Z,43.55
2019-03-28T14:38:59.780Z,43.49
2019-03-28T14:41:28.210Z,41.96
2019-03-28T14:43:56.615Z,40.22
2019-03-28T14:46:25.045Z,41.20
2019-03-28T14:48:53.609Z,42.53
2019-03-28T14:51:22.195Z,42.34
2019-03-28T14:53:50.619Z,44.32
2019-03-28T14:56:19.116Z,43.44
2019-03-28T14:58:49.872Z,45.01
2019-03-28T15:01:18.275Z,42.76
2019-03-28T15:03:46.698Z,47.29
2019-03-28T15:06:15.110Z,43.00
2019-03-28T15:08:43.715Z,44.59
2019-03-28T15:11:12.215Z,42.81
2019-03-28T15:13:40.747Z,44.10
2019-03-28T15:16:09.202Z,42.91
2019-03-28T15:18:37.634Z,42.91
2019-03-28T15:21:06.046Z,43.95
2019-03-28T15:23:34.443Z,42.82
2019-03-28T15:26:02.874Z,43.71
2019-03-28T15:28:31.277Z,45.57
2019-03-28T15:30:59.955Z,45.82
2019-03-28T15:33:38.855Z,44.46
2019-03-28T15:35:58.520Z,45.09
2019-03-28T15:38:26.922Z,44.48
2019-03-28T15:40:55.361Z,46.85
2019-03-28T15:43:23.767Z,44.37
2019-03-28T15:45:52.173Z,45.52
2019-03-28T15:48:20.608Z,44.51
2019-03-28T15:50:49.013Z,46.41
2019-03-28T15:53:17.428Z,45.75
2019-03-28T15:55:45.855Z,45.32
2019-03-28T15:58:23.048Z,46.65
2019-03-28T16:00:44.408Z,46.88
2019-03-28T16:03:12.895Z,47.75
2019-03-28T16:05:41.304Z,47.02
2019-03-28T16:08:09.736Z,46.54
2019-03-28T16:10:38.140Z,46.71
2019-03-28T16:13:06.539Z,44.26
2019-03-28T16:15:34.960Z,42.64
2019-03-28T16:18:03.368Z,42.88
2019-03-28T16:20:31.794Z,43.30
2019-03-28T16:23:00.203Z,44.77
2019-03-28T16:25:28.610Z,45.87
2019-03-28T16:27:57.036Z,45.52
2019-03-28T16:30:34.151Z,45.52
2019-03-28T16:33:02.559Z,46.50
2019-03-28T16:35:31.303Z,46.80
2019-03-28T16:37:59.706Z,47.42
2019-03-28T16:40:28.133Z,48.28
2019-03-28T16:42:56.527Z,48.29
2019-03-28T16:45:24.945Z,48.06
2019-03-28T16:47:53.384Z,49.24
2019-03-28T16:50:21.788Z,48.37
2019-03-28T16:52:50.477Z,48.49
2019-03-28T16:55:26.166Z,48.55
2019-03-28T16:57:49.397Z,49.97
2019-03-28T17:00:18.144Z,48.62
2019-03-28T17:02:46.574Z,49.05
2019-03-28T17:05:15.678Z,50.04
2019-03-28T17:07:45.745Z,49.77
2019-03-28T17:10:19.920Z,49.46
2019-03-28T17:12:48.348Z,49.90
2019-03-28T17:15:17.693Z,49.92
2019-03-28T17:17:46.138Z,51.26
2019-03-28T17:20:15.094Z,51.94
2019-03-28T17:22:43.623Z,51.76
2019-03-28T17:25:12.381Z,51.92
2019-03-28T17:27:40.800Z,52.34
2019-03-28T17:30:09.375Z,51.27
2019-03-28T17:32:38.777Z,51.48
2019-03-28T17:35:07.466Z,51.74
2019-03-28T17:37:35.865Z,52.26
2019-03-28T17:40:06.421Z,52.39
2019-03-28T17:42:34.826Z,51.96
2019-03-28T17:45:03.624Z,52.00
2019-03-28T17:47:32.033Z,51.76
2019-03-28T17:50:00.442Z,52.34
2019-03-28T17:52:28.857Z,52.00
2019-03-28T17:54:57.335Z,52.07
2019-03-28T17:57:25.763Z,51.95
2019-03-28T17:59:54.173Z,52.27
2019-03-28T18:02:22.647Z,52.34
2019-03-28T18:04:51.066Z,51.76
2019-03-28T18:07:19.520Z,52.23
2019-03-28T18:09:47.891Z,52.06
2019-03-28T18:12:16.583Z,52.86
2019-03-28T18:14:44.992Z,53.81
2019-03-28T18:17:13.748Z,53.62
2019-03-28T18:19:42.180Z,53.08
2019-03-28T18:22:10.609Z,52.76
2019-03-28T18:24:39.008Z,53.30
2019-03-28T18:27:07.404Z,53.06
2019-03-28T18:29:36.122Z,53.19
2019-03-28T18:32:04.605Z,53.15
2019-03-28T18:34:33.023Z,53.35
2019-03-28T18:37:01.426Z,53.87
2019-03-28T18:39:29.831Z,53.77
2019-03-28T18:41:58.254Z,54.30
2019-03-28T18:44:26.655Z,54.31
2019-03-28T18:46:55.059Z,54.53
2019-03-28T18:49:23.479Z,54.24
2019-03-28T18:51:52.290Z,54.95
2019-03-28T18:54:20.956Z,54.66
2019-03-28T18:56:49.860Z,55.24
2019-03-28T18:59:18.259Z,55.37
2019-03-28T19:01:46.666Z,55.66
2019-03-28T19:04:15.105Z,56.07
2019-03-28T19:06:43.615Z,56.60
2019-03-28T19:09:12.080Z,56.50
2019-03-28T19:11:41.057Z,56.93
2019-03-28T19:14:09.445Z,57.18
2019-03-28T19:16:37.860Z,57.66
2019-03-28T19:19:06.283Z,57.88
2019-03-28T19:21:34.683Z,58.11
2019-03-28T19:24:03.149Z,58.44
2019-03-28T19:26:31.577Z,58.66
2019-03-28T19:28:59.976Z,58.53
2019-03-28T19:31:28.375Z,59.06
2019-03-28T19:33:56.955Z,58.92
2019-03-28T19:36:25.997Z,59.10
2019-03-28T19:38:54.637Z,59.30
2019-03-28T19:41:24.606Z,59.51
2019-03-28T19:43:54.447Z,59.42
2019-03-28T19:46:22.911Z,59.56
2019-03-28T19:48:51.415Z,59.79
2019-03-28T19:51:20.001Z,59.83
2019-03-28T19:53:48.396Z,59.18
2019-03-28T19:56:16.823Z,59.24
2019-03-28T19:58:45.227Z,59.21
2019-03-28T20:01:13.626Z,59.17
2019-03-28T20:03:42.052Z,59.07
2019-03-28T20:06:21.678Z,59.35
2019-03-28T20:08:40.653Z,59.30
2019-03-28T20:11:09.176Z,59.46
2019-03-28T20:13:37.536Z,59.58
2019-03-28T20:16:05.945Z,59.60
2019-03-28T20:18:34.361Z,59.57
2019-03-28T20:21:02.767Z,59.71
2019-03-28T20:23:31.168Z,59.66
2019-03-28T20:25:59.604Z,59.70
2019-03-28T20:28:28.010Z,59.77
2019-03-28T20:30:56.726Z,60.18
2019-03-28T20:33:25.339Z,60.62
2019-03-28T20:36:11.761Z,60.68
2019-03-28T20:38:23.957Z,61.33
2019-03-28T20:40:52.350Z,61.49
2019-03-28T20:43:21.062Z,61.62
2019-03-28T20:45:49.471Z,61.82
2019-03-28T20:48:17.872Z,61.92
2019-03-28T20:50:46.262Z,61.95
2019-03-28T20:53:14.691Z,62.22
2019-03-28T20:55:43.087Z,62.31
2019-03-28T20:58:11.478Z,62.07
2019-03-28T21:00:42.510Z,62.83
2019-03-28T21:03:10.996Z,63.53
2019-03-28T21:05:39.535Z,63.84
2019-03-28T21:08:08.396Z,64.15
2019-03-28T21:10:36.793Z,64.24
2019-03-28T21:13:05.425Z,65.25
2019-03-28T21:15:33.910Z,65.39
2019-03-28T21:18:02.324Z,65.35
2019-03-28T21:20:30.719Z,65.19
2019-03-28T21:22:59.136Z,65.22
2019-03-28T21:25:29.631Z,65.29
2019-03-28T21:27:58.687Z,65.51
2019-03-28T21:30:27.328Z,65.24
2019-03-28T21:32:57.722Z,65.63
2019-03-28T21:35:25.975Z,65.93
2019-03-28T21:37:54.377Z,66.01
2019-03-28T21:40:22.780Z,65.96
2019-03-28T21:42:51.205Z,66.29
2019-03-28T21:45:19.644Z,65.40
2019-03-28T21:47:48.038Z,65.20
2019-03-28T21:50:16.596Z,65.32
2019-03-28T21:52:45.452Z,65.74
2019-03-28T21:55:14.175Z,66.29
2019-03-28T21:57:42.806Z,66.37
2019-03-28T22:00:11.597Z,66.24
2019-03-28T22:02:40.591Z,65.60
2019-03-28T22:05:09.165Z,65.75
2019-03-28T22:07:37.557Z,66.06
2019-03-28T22:10:08.854Z,65.85
2019-03-28T22:12:37.589Z,66.75
2019-03-28T22:15:08.326Z,66.99
2019-03-28T22:17:37.475Z,66.55
2019-03-28T22:20:07.482Z,66.46
2019-03-28T22:22:35.868Z,65.95
2019-03-28T22:25:05.638Z,66.58
2019-03-28T22:27:34.030Z,67.27
2019-03-28T22:30:02.433Z,67.51
2019-03-28T22:32:31.204Z,67.71
2019-03-28T22:35:00.148Z,68.89
2019-03-28T22:37:28.895Z,69.10
2019-03-28T22:39:57.769Z,67.85
2019-03-28T22:42:26.164Z,67.59
2019-03-28T22:44:54.565Z,69.50
2019-03-28T22:47:22.986Z,68.98
2019-03-28T22:49:51.383Z,67.23
2019-03-28T22:52:19.782Z,67.34
2019-03-28T22:54:48.205Z,67.09
2019-03-28T22:57:16.959Z,68.17
2019-03-28T22:59:45.357Z,67.85
2019-03-28T23:02:13.836Z,67.90
2019-03-28T23:04:42.240Z,67.68
2019-03-28T23:07:11.538Z,67.96
2019-03-28T23:09:39.962Z,67.82
2019-03-28T23:12:09.047Z,67.77
2019-03-28T23:14:37.652Z,67.19
2019-03-28T23:17:06.049Z,68.06
2019-03-28T23:19:34.486Z,69.05
2019-03-28T23:22:02.876Z,69.80
2019-03-28T23:24:31.272Z,69.98
2019-03-28T23:27:00.782Z,70.83
2019-03-28T23:29:29.370Z,71.29
2019-03-28T23:31:57.793Z,69.57
2019-03-28T23:34:26.196Z,69.53
2019-03-28T23:36:54.588Z,68.74
2019-03-28T23:39:23.005Z,69.60
2019-03-28T23:41:51.401Z,70.43
2019-03-28T23:44:19.806Z,70.39
2019-03-28T23:46:48.237Z,70.78
2019-03-28T23:49:16.631Z,72.33
2019-03-28T23:51:45.039Z,71.94
2019-03-28T23:54:13.438Z,70.97
2019-03-28T23:56:41.842Z,69.61
2019-03-28T23:59:10.789Z,69.22
